Time;durP1;ratioP1;P1;durP2;ratioP2;P2;SDS_P1;SDS_P2;PMS_P1;PMS_P2;Temp;Humidity;BMP_temperature;BMP_pressure;BME280_temperature;BME280_humidity;BME280_pressure;Samples;Min_cycle;Max_cycle;Signal;HPM_P1;HPM_P2
2022/06/08 00:00:15;;;;;;;;;;;18.50;91.90;;;;;;5054631;28;20159;-59
2022/06/08 00:02:42;;;;;;;;;;;18.50;92.10;;;;;;5052072;28;19998;-58
2022/06/08 00:05:08;;;;;;;;;;;18.50;91.50;;;;;;5054225;28;19913;-55
2022/06/08 00:07:34;;;;;;;;;;;18.60;91.80;;;;;;5051661;28;19923;-60
2022/06/08 00:09:59;;;;;;;;;;;18.50;92.10;;;;;;5052129;28;19916;-55
2022/06/08 00:12:25;;;;;;;;;;;18.50;92.10;;;;;;5052457;28;19908;-59
2022/06/08 00:14:51;;;;;;;;;;;18.50;92.60;;;;;;5054296;28;19920;-58
2022/06/08 00:17:16;;;;;;;;;;;18.50;92.60;;;;;;5051492;28;19937;-58
2022/06/08 00:19:42;;;;;;;;;;;18.50;92.40;;;;;;5051558;28;19995;-58
2022/06/08 00:22:07;;;;;;;;;;;18.50;91.10;;;;;;5058377;28;20039;-56
2022/06/08 00:24:33;;;;;;;;;;;18.50;92.10;;;;;;5051736;28;20378;-59
2022/06/08 00:27:00;;;;;;;;;;;18.50;92.70;;;;;;5052734;28;19935;-58
2022/06/08 00:29:26;;;;;;;;;;;18.50;93.00;;;;;;5051570;28;19912;-57
2022/06/08 00:31:51;;;;;;;;;;;18.40;92.00;;;;;;5051543;28;19920;-58
2022/06/08 00:34:17;;;;;;;;;;;18.40;92.70;;;;;;5052136;28;19913;-58
2022/06/08 00:36:42;;;;;;;;;;;18.40;92.40;;;;;;5054552;28;19927;-59
2022/06/08 00:39:08;;;;;;;;;;;18.40;92.20;;;;;;5052323;28;19951;-58
2022/06/08 00:41:42;;;;;;;;;;;18.40;92.90;;;;;;5051648;28;20003;-58
2022/06/08 00:44:13;;;;;;;;;;;18.40;92.70;;;;;;5049444;28;19935;-59
2022/06/08 00:46:39;;;;;;;;;;;18.50;93.00;;;;;;5051375;28;20402;-59
2022/06/08 00:49:09;;;;;;;;;;;18.40;93.40;;;;;;5051203;28;19913;-59
2022/06/08 00:51:35;;;;;;;;;;;18.40;93.50;;;;;;5052830;28;19916;-59
2022/06/08 00:54:03;;;;;;;;;;;18.40;94.00;;;;;;5057663;28;19913;-58
2022/06/08 00:56:34;;;;;;;;;;;18.50;93.80;;;;;;5051996;28;20079;-58
2022/06/08 00:59:02;;;;;;;;;;;18.40;94.30;;;;;;5036749;28;20366;-58
2022/06/08 01:01:27;;;;;;;;;;;18.40;95.10;;;;;;5051393;28;19928;-59
2022/06/08 01:04:11;;;;;;;;;;;18.40;94.90;;;;;;5050920;28;19913;-58
2022/06/08 01:06:37;;;;;;;;;;;18.40;96.00;;;;;;5032441;28;20444;-59
2022/06/08 01:09:02;;;;;;;;;;;18.30;95.90;;;;;;5033327;28;20015;-57
2022/06/08 01:11:44;;;;;;;;;;;18.30;97.00;;;;;;5051894;28;19920;-58
2022/06/08 01:14:11;;;;;;;;;;;18.30;97.30;;;;;;5049829;28;20093;-58
2022/06/08 01:16:39;;;;;;;;;;;18.20;97.50;;;;;;5050195;28;19932;-58
2022/06/08 01:19:06;;;;;;;;;;;18.20;97.80;;;;;;5050333;28;19913;-59
2022/06/08 01:21:31;;;;;;;;;;;18.20;97.90;;;;;;5055021;28;19994;-59
2022/06/08 01:24:00;;;;;;;;;;;18.10;98.00;;;;;;5050794;28;19955;-58
2022/06/08 01:26:36;;;;;;;;;;;18.10;98.50;;;;;;5050644;28;19935;-58
2022/06/08 01:29:20;;;;;;;;;;;18.10;98.70;;;;;;5054397;28;19912;-59
2022/06/08 01:32:12;;;;;;;;;;;18.10;99.00;;;;;;5050087;28;20422;-56
2022/06/08 01:34:37;;;;;;;;;;;18.00;99.30;;;;;;5049556;28;19992;-59
2022/06/08 01:37:27;;;;;;;;;;;18.00;99.20;;;;;;5050474;28;20012;-59
2022/06/08 01:40:02;;;;;;;;;;;18.00;99.30;;;;;;5049973;28;19921;-59
2022/06/08 01:42:46;;;;;;;;;;;18.00;99.40;;;;;;5047576;28;20007;-58
2022/06/08 01:45:29;;;;;;;;;;;17.90;99.80;;;;;;5052628;28;19916;-59
2022/06/08 01:47:59;;;;;;;;;;;17.90;99.60;;;;;;5049922;28;19958;-60
2022/06/08 01:50:43;;;;;;;;;;;17.90;99.20;;;;;;5049012;28;19920;-59
2022/06/08 01:53:16;;;;;;;;;;;17.90;99.40;;;;;;5049391;28;20471;-59
2022/06/08 01:55:54;;;;;;;;;;;17.90;99.40;;;;;;5049628;28;19921;-59
2022/06/08 01:58:26;;;;;;;;;;;17.90;99.20;;;;;;5049946;28;19935;-59
2022/06/08 02:00:55;;;;;;;;;;;17.90;99.30;;;;;;5049110;28;19925;-58
2022/06/08 02:03:40;;;;;;;;;;;17.80;98.40;;;;;;5031579;28;20473;-59
2022/06/08 02:06:19;;;;;;;;;;;17.90;99.80;;;;;;5056902;28;19909;-59
2022/06/08 02:08:45;;;;;;;;;;;17.80;99.90;;;;;;5050277;28;19913;-60
2022/06/08 02:11:16;;;;;;;;;;;17.80;99.90;;;;;;5050795;28;19920;-59
2022/06/08 02:13:42;;;;;;;;;;;17.80;99.90;;;;;;5052392;28;19940;-59
2022/06/08 02:16:11;;;;;;;;;;;17.80;99.60;;;;;;5054430;28;19955;-59
2022/06/08 02:18:46;;;;;;;;;;;17.80;99.80;;;;;;5052164;28;20429;-60
2022/06/08 02:21:14;;;;;;;;;;;17.80;99.80;;;;;;5053382;28;19981;-59
2022/06/08 02:23:41;;;;;;;;;;;17.80;99.20;;;;;;5055476;28;19939;-59
2022/06/08 02:26:11;;;;;;;;;;;17.70;99.90;;;;;;5050636;28;19920;-59
2022/06/08 02:28:38;;;;;;;;;;;17.70;99.90;;;;;;5051492;28;19993;-58
2022/06/08 02:31:15;;;;;;;;;;;17.70;99.90;;;;;;5050725;28;19921;-58
2022/06/08 02:36:32;;;;;;;;;;;17.60;99.90;;;;;;5052435;28;20440;-59
2022/06/08 02:39:11;;;;;;;;;;;17.60;99.90;;;;;;5053096;28;20398;-59
2022/06/08 02:41:39;;;;;;;;;;;17.60;99.90;;;;;;5056805;28;19923;-59
2022/06/08 02:44:07;;;;;;;;;;;17.60;99.90;;;;;;5049510;28;19924;-60
2022/06/08 02:46:37;;;;;;;;;;;17.60;99.90;;;;;;5049358;28;20436;-59
2022/06/08 02:49:04;;;;;;;;;;;17.50;99.90;;;;;;5049332;28;20481;-59
2022/06/08 02:51:30;;;;;;;;;;;17.50;99.90;;;;;;5054180;28;19908;-58
2022/06/08 02:53:59;;;;;;;;;;;17.40;99.90;;;;;;5052694;28;19931;-59
2022/06/08 02:56:26;;;;;;;;;;;17.40;99.90;;;;;;5049934;28;19920;-58
2022/06/08 02:58:56;;;;;;;;;;;17.40;99.90;;;;;;5054986;28;19913;-57
2022/06/08 03:01:25;;;;;;;;;;;17.40;99.90;;;;;;5049578;28;20460;-58
2022/06/08 03:03:54;;;;;;;;;;;17.40;99.90;;;;;;5050510;28;20498;-59
2022/06/08 03:06:21;;;;;;;;;;;17.30;99.90;;;;;;5036711;28;19966;-59
2022/06/08 03:08:56;;;;;;;;;;;17.30;99.90;;;;;;5054533;28;19956;-59
2022/06/08 03:11:24;;;;;;;;;;;17.30;99.90;;;;;;5054590;28;19920;-59
2022/06/08 03:14:01;;;;;;;;;;;17.20;99.90;;;;;;5049048;28;19920;-59
2022/06/08 03:16:31;;;;;;;;;;;17.20;99.90;;;;;;5049684;28;19920;-59
2022/06/08 03:18:57;;;;;;;;;;;17.20;99.90;;;;;;5051578;28;19913;-60
2022/06/08 03:21:23;;;;;;;;;;;17.10;99.90;;;;;;5054563;28;19913;-58
2022/06/08 03:23:49;;;;;;;;;;;17.10;99.90;;;;;;5055009;28;20046;-59
2022/06/08 03:26:16;;;;;;;;;;;17.00;99.90;;;;;;5049605;28;20283;-59
2022/06/08 03:28:41;;;;;;;;;;;17.00;99.90;;;;;;5053928;28;19924;-60
2022/06/08 03:31:07;;;;;;;;;;;17.00;99.90;;;;;;5052879;28;19920;-58
2022/06/08 03:33:32;;;;;;;;;;;17.00;99.90;;;;;;5053590;28;19915;-59
2022/06/08 03:35:58;;;;;;;;;;;16.90;99.90;;;;;;5054484;28;20786;-58
2022/06/08 03:38:23;;;;;;;;;;;16.90;99.90;;;;;;5053341;28;19919;-57
2022/06/08 03:40:49;;;;;;;;;;;16.90;99.90;;;;;;5055431;28;19912;-59
2022/06/08 03:43:16;;;;;;;;;;;16.90;99.90;;;;;;5058649;28;20321;-59
2022/06/08 03:45:45;;;;;;;;;;;16.90;99.90;;;;;;5056445;28;20351;-59
2022/06/08 03:48:11;;;;;;;;;;;16.90;99.90;;;;;;5057261;28;19990;-59
2022/06/08 03:50:37;;;;;;;;;;;16.90;99.90;;;;;;5053310;28;20370;-59
2022/06/08 03:53:05;;;;;;;;;;;16.90;99.90;;;;;;5058659;28;19917;-59
2022/06/08 03:55:32;;;;;;;;;;;16.80;99.90;;;;;;5052709;28;19982;-59
2022/06/08 03:57:58;;;;;;;;;;;16.80;99.90;;;;;;5055483;28;20408;-59
2022/06/08 04:00:24;;;;;;;;;;;16.90;99.90;;;;;;5045531;28;19926;-59
2022/06/08 04:02:50;;;;;;;;;;;16.90;99.90;;;;;;5053464;28;19919;-59
2022/06/08 04:05:16;;;;;;;;;;;16.80;99.90;;;;;;5052953;28;19983;-59
2022/06/08 04:07:42;;;;;;;;;;;16.80;99.90;;;;;;5054601;28;19912;-59
2022/06/08 04:10:07;;;;;;;;;;;16.90;99.90;;;;;;5056745;28;20290;-59
2022/06/08 04:12:33;;;;;;;;;;;16.80;99.90;;;;;;5054300;28;20404;-60
2022/06/08 04:14:58;;;;;;;;;;;16.80;99.90;;;;;;5035797;28;19920;-60
2022/06/08 04:17:24;;;;;;;;;;;16.80;99.90;;;;;;5052122;28;19924;-60
2022/06/08 04:19:49;;;;;;;;;;;16.80;99.90;;;;;;5052875;28;19955;-59
2022/06/08 04:22:16;;;;;;;;;;;16.80;99.90;;;;;;5053912;28;19963;-59
2022/06/08 04:24:42;;;;;;;;;;;16.80;99.90;;;;;;5061372;28;19912;-60
2022/06/08 04:27:09;;;;;;;;;;;16.80;99.90;;;;;;5056429;28;19912;-59
2022/06/08 04:29:34;;;;;;;;;;;16.80;99.90;;;;;;5055603;28;19913;-57
2022/06/08 04:32:00;;;;;;;;;;;16.80;99.90;;;;;;5052280;28;20004;-59
2022/06/08 04:34:25;;;;;;;;;;;16.70;99.90;;;;;;5051672;28;19954;-59
2022/06/08 04:36:51;;;;;;;;;;;16.80;99.90;;;;;;5051616;28;19928;-59
2022/06/08 04:39:16;;;;;;;;;;;16.70;99.90;;;;;;5052261;28;19940;-58
2022/06/08 04:41:42;;;;;;;;;;;16.80;99.90;;;;;;5051273;28;19908;-59
2022/06/08 04:44:07;;;;;;;;;;;16.80;99.90;;;;;;5051150;28;19952;-59
2022/06/08 04:46:33;;;;;;;;;;;16.70;99.90;;;;;;5051895;28;19909;-58
2022/06/08 04:48:59;;;;;;;;;;;16.80;99.90;;;;;;5052947;28;19920;-59
2022/06/08 04:51:24;;;;;;;;;;;16.70;99.90;;;;;;5051520;28;20024;-59
2022/06/08 04:53:50;;;;;;;;;;;16.70;99.90;;;;;;5055279;28;19935;-59
2022/06/08 04:56:15;;;;;;;;;;;16.80;99.90;;;;;;5054466;28;19913;-59
2022/06/08 04:58:41;;;;;;;;;;;16.70;99.90;;;;;;5050535;28;19963;-59
2022/06/08 05:01:07;;;;;;;;;;;16.70;99.90;;;;;;5054123;28;19925;-59
2022/06/08 05:03:32;;;;;;;;;;;16.70;99.90;;;;;;5055122;28;19978;-58
2022/06/08 05:05:59;;;;;;;;;;;16.70;99.90;;;;;;5051780;28;19909;-60
2022/06/08 05:08:24;;;;;;;;;;;16.70;99.90;;;;;;5051373;28;19913;-59
2022/06/08 05:10:50;;;;;;;;;;;16.70;99.90;;;;;;5050708;28;19966;-58
2022/06/08 05:13:16;;;;;;;;;;;16.70;99.90;;;;;;5031559;28;20370;-58
2022/06/08 05:15:43;;;;;;;;;;;16.70;99.90;;;;;;5051194;28;19917;-59
2022/06/08 05:18:09;;;;;;;;;;;16.70;99.90;;;;;;5052057;28;19944;-59
2022/06/08 05:20:35;;;;;;;;;;;16.70;99.90;;;;;;5049339;28;19916;-60
2022/06/08 05:23:01;;;;;;;;;;;16.70;99.90;;;;;;5050534;28;19966;-59
2022/06/08 05:25:31;;;;;;;;;;;16.70;99.90;;;;;;5049368;28;19917;-59
2022/06/08 05:27:58;;;;;;;;;;;16.70;99.90;;;;;;5050128;28;19916;-59
2022/06/08 05:30:25;;;;;;;;;;;16.60;99.90;;;;;;5050902;28;19948;-59
2022/06/08 05:32:51;;;;;;;;;;;16.60;99.90;;;;;;5052264;28;20359;-59
2022/06/08 05:35:16;;;;;;;;;;;16.60;99.90;;;;;;5053452;28;19967;-59
2022/06/08 05:37:42;;;;;;;;;;;16.60;99.90;;;;;;5050469;28;19921;-59
2022/06/08 05:40:08;;;;;;;;;;;16.60;99.90;;;;;;5050900;28;20011;-58
2022/06/08 05:42:33;;;;;;;;;;;16.60;99.90;;;;;;5049991;28;19909;-58
2022/06/08 05:44:59;;;;;;;;;;;16.60;99.90;;;;;;5050608;28;19913;-58
2022/06/08 05:47:24;;;;;;;;;;;16.60;99.90;;;;;;5054851;28;19919;-58
2022/06/08 05:49:50;;;;;;;;;;;16.60;99.90;;;;;;5049283;28;20383;-58
2022/06/08 05:52:17;;;;;;;;;;;16.60;99.90;;;;;;5049387;28;20371;-58
2022/06/08 05:54:43;;;;;;;;;;;16.60;99.90;;;;;;5054758;28;20546;-58
2022/06/08 05:57:10;;;;;;;;;;;16.60;99.90;;;;;;5050055;28;19940;-57
2022/06/08 05:59:36;;;;;;;;;;;16.60;99.90;;;;;;5050700;28;20417;-58
2022/06/08 06:02:02;;;;;;;;;;;16.60;99.90;;;;;;5054291;28;19985;-57
2022/06/08 06:04:28;;;;;;;;;;;16.60;99.90;;;;;;5049473;28;19917;-57
2022/06/08 06:06:53;;;;;;;;;;;16.60;99.90;;;;;;5049365;28;19920;-58
2022/06/08 06:09:20;;;;;;;;;;;16.60;99.90;;;;;;5050232;28;20054;-57
2022/06/08 06:11:45;;;;;;;;;;;16.60;99.90;;;;;;5057764;28;19912;-57
2022/06/08 06:14:11;;;;;;;;;;;16.60;99.90;;;;;;5049609;28;20000;-58
2022/06/08 06:16:37;;;;;;;;;;;16.50;99.90;;;;;;5051430;28;19920;-58
2022/06/08 06:19:02;;;;;;;;;;;16.60;99.90;;;;;;5053557;28;20481;-57
2022/06/08 06:21:28;;;;;;;;;;;16.50;99.90;;;;;;5050570;28;20003;-59
2022/06/08 06:23:54;;;;;;;;;;;16.60;99.90;;;;;;5054022;28;19913;-63
2022/06/08 06:26:20;;;;;;;;;;;16.50;99.90;;;;;;5049291;28;19998;-64
2022/06/08 06:28:46;;;;;;;;;;;16.50;99.90;;;;;;5049696;28;19932;-64
2022/06/08 06:31:14;;;;;;;;;;;16.50;99.90;;;;;;5051714;28;20339;-64
2022/06/08 06:33:40;;;;;;;;;;;16.50;99.90;;;;;;5048462;28;19921;-64
2022/06/08 06:36:05;;;;;;;;;;;16.50;99.90;;;;;;5049823;28;19913;-64
2022/06/08 06:38:31;;;;;;;;;;;16.50;99.90;;;;;;5049943;28;20363;-65
2022/06/08 06:40:57;;;;;;;;;;;16.60;99.90;;;;;;5053428;28;20246;-63
2022/06/08 06:43:22;;;;;;;;;;;16.60;99.90;;;;;;5052394;28;19913;-64
2022/06/08 06:45:48;;;;;;;;;;;16.60;99.90;;;;;;5053997;28;20391;-63
2022/06/08 06:48:13;;;;;;;;;;;16.60;99.90;;;;;;5052579;28;19919;-65
2022/06/08 06:50:39;;;;;;;;;;;16.60;99.90;;;;;;5049510;28;20011;-63
2022/06/08 06:53:04;;;;;;;;;;;16.60;99.90;;;;;;5052556;28;19916;-60
2022/06/08 06:55:30;;;;;;;;;;;16.60;99.90;;;;;;5049453;28;20278;-64
2022/06/08 06:57:57;;;;;;;;;;;16.60;99.90;;;;;;5051953;28;20445;-63
2022/06/08 07:00:22;;;;;;;;;;;16.60;99.90;;;;;;5054746;28;19921;-65
2022/06/08 07:02:48;;;;;;;;;;;16.60;99.90;;;;;;5050491;28;19912;-66
2022/06/08 07:05:16;;;;;;;;;;;16.60;99.90;;;;;;5052491;28;19913;-63
2022/06/08 07:07:41;;;;;;;;;;;16.70;99.90;;;;;;5048250;28;19920;-65
2022/06/08 07:10:07;;;;;;;;;;;16.60;99.90;;;;;;5053501;28;19913;-66
2022/06/08 07:12:32;;;;;;;;;;;16.60;99.90;;;;;;5054025;28;19948;-65
2022/06/08 07:14:58;;;;;;;;;;;16.60;99.90;;;;;;5055970;28;19920;-66
2022/06/08 07:17:23;;;;;;;;;;;16.60;99.90;;;;;;5057559;28;19947;-66
2022/06/08 07:19:49;;;;;;;;;;;16.60;99.90;;;;;;5053565;28;20418;-66
2022/06/08 07:22:14;;;;;;;;;;;16.60;99.90;;;;;;5057474;28;19913;-66
2022/06/08 07:24:40;;;;;;;;;;;16.60;99.90;;;;;;5055974;28;19921;-65
2022/06/08 07:27:05;;;;;;;;;;;16.60;99.90;;;;;;5056879;28;19970;-66
2022/06/08 07:29:31;;;;;;;;;;;16.60;99.90;;;;;;5056003;28;19913;-64
2022/06/08 07:31:57;;;;;;;;;;;16.60;99.90;;;;;;5053485;28;19999;-63
2022/06/08 07:34:22;;;;;;;;;;;16.60;99.90;;;;;;5055376;28;19912;-65
2022/06/08 07:36:48;;;;;;;;;;;16.60;99.90;;;;;;5053509;28;20370;-66
2022/06/08 07:39:15;;;;;;;;;;;16.60;99.90;;;;;;5054180;28;19919;-65
2022/06/08 07:41:42;;;;;;;;;;;16.70;99.90;;;;;;5056485;28;19913;-65
2022/06/08 07:44:07;;;;;;;;;;;16.70;99.90;;;;;;5035554;28;19948;-66
2022/06/08 07:46:33;;;;;;;;;;;16.80;99.90;;;;;;5057550;28;20414;-65
2022/06/08 07:51:42;;;;;;;;;;;16.90;99.90;;;;;;5055371;28;19983;-67
2022/06/08 07:54:08;;;;;;;;;;;17.00;99.90;;;;;;5053186;28;20379;-66
2022/06/08 07:56:33;;;;;;;;;;;17.00;99.90;;;;;;5053290;28;19927;-66
2022/06/08 07:58:59;;;;;;;;;;;17.10;99.90;;;;;;5055282;28;19984;-66
2022/06/08 08:01:25;;;;;;;;;;;17.20;99.90;;;;;;5055356;28;19975;-67
2022/06/08 08:03:51;;;;;;;;;;;17.30;99.90;;;;;;5057688;28;19978;-66
2022/06/08 08:06:16;;;;;;;;;;;17.50;99.90;;;;;;5055615;28;19909;-65
2022/06/08 08:08:42;;;;;;;;;;;17.60;99.90;;;;;;5053419;28;19917;-66
2022/06/08 08:11:07;;;;;;;;;;;17.70;99.90;;;;;;5056113;28;19916;-67
2022/06/08 08:13:34;;;;;;;;;;;17.90;99.90;;;;;;5053006;28;19913;-65
2022/06/08 08:16:00;;;;;;;;;;;18.10;99.90;;;;;;5053528;28;20008;-66
2022/06/08 08:18:25;;;;;;;;;;;18.20;99.90;;;;;;5057647;28;20344;-65
2022/06/08 08:20:51;;;;;;;;;;;18.40;99.90;;;;;;5053653;28;19909;-66
2022/06/08 08:23:16;;;;;;;;;;;18.50;99.90;;;;;;5058453;28;19927;-66
2022/06/08 08:25:42;;;;;;;;;;;18.60;99.90;;;;;;5052209;28;19913;-66
2022/06/08 08:28:08;;;;;;;;;;;18.70;99.90;;;;;;5055788;28;19982;-66
2022/06/08 08:30:33;;;;;;;;;;;18.90;99.90;;;;;;5053203;28;20047;-64
2022/06/08 08:32:59;;;;;;;;;;;19.00;99.90;;;;;;5055209;28;19931;-66
2022/06/08 08:35:25;;;;;;;;;;;19.00;99.90;;;;;;5057024;28;19913;-66
2022/06/08 08:37:51;;;;;;;;;;;19.00;99.90;;;;;;5052735;28;19928;-64
2022/06/08 08:40:36;;;;;;;;;;;19.00;99.90;;;;;;5051392;28;19913;-66
2022/06/08 08:43:02;;;;;;;;;;;19.00;99.90;;;;;;5055533;28;19921;-67
2022/06/08 08:45:28;;;;;;;;;;;19.00;99.90;;;;;;5055980;28;20328;-66
2022/06/08 08:48:05;;;;;;;;;;;19.00;99.90;;;;;;5053736;28;20506;-65
2022/06/08 08:50:35;;;;;;;;;;;19.00;99.90;;;;;;5051400;28;20307;-66
2022/06/08 08:53:00;;;;;;;;;;;19.10;99.90;;;;;;5053930;28;19916;-66
2022/06/08 08:55:32;;;;;;;;;;;19.10;99.90;;;;;;5051978;28;19917;-65
2022/06/08 08:58:04;;;;;;;;;;;19.10;99.90;;;;;;5051345;28;19968;-66
2022/06/08 09:00:40;;;;;;;;;;;19.10;99.90;;;;;;5055796;28;19925;-66
2022/06/08 09:03:17;;;;;;;;;;;19.10;99.90;;;;;;5055935;28;19936;-66
2022/06/08 09:05:44;;;;;;;;;;;19.10;99.90;;;;;;5044257;28;19913;-65
2022/06/08 09:08:10;;;;;;;;;;;19.10;99.90;;;;;;5041487;28;19920;-65
2022/06/08 09:10:36;;;;;;;;;;;19.10;99.90;;;;;;5046160;28;19913;-62
2022/06/08 09:13:05;;;;;;;;;;;19.20;99.90;;;;;;5046799;28;19927;-64
2022/06/08 09:15:43;;;;;;;;;;;19.20;99.90;;;;;;5030196;28;19913;-65
2022/06/08 09:18:17;;;;;;;;;;;19.30;99.90;;;;;;5049610;28;19932;-65
2022/06/08 09:20:42;;;;;;;;;;;19.40;99.90;;;;;;5047037;28;19912;-66
2022/06/08 09:23:26;;;;;;;;;;;19.40;99.90;;;;;;5047216;28;20297;-63
2022/06/08 09:26:07;;;;;;;;;;;19.40;99.90;;;;;;5044079;28;19962;-63
2022/06/08 09:28:33;;;;;;;;;;;19.40;99.90;;;;;;5045277;28;19964;-65
2022/06/08 09:30:59;;;;;;;;;;;19.50;99.90;;;;;;5047619;28;20326;-67
2022/06/08 09:33:27;;;;;;;;;;;19.40;99.90;;;;;;5047124;28;19943;-66
2022/06/08 09:36:15;;;;;;;;;;;19.40;99.90;;;;;;5049322;28;19917;-66
2022/06/08 09:38:41;;;;;;;;;;;19.30;99.90;;;;;;5032856;28;19959;-66
2022/06/08 09:41:13;;;;;;;;;;;19.30;99.90;;;;;;5045504;28;19952;-64
2022/06/08 09:43:59;;;;;;;;;;;19.20;99.90;;;;;;5043045;28;20430;-66
2022/06/08 09:52:24;;;;;;;;;;;19.50;99.90;;;;;;5046102;28;19923;-68
2022/06/08 09:55:16;;;;;;;;;;;19.60;99.90;;;;;;5045227;28;20015;-67
2022/06/08 09:57:45;;;;;;;;;;;19.70;99.90;;;;;;5042780;28;19929;-67
2022/06/08 10:00:20;;;;;;;;;;;19.70;99.90;;;;;;5047961;28;19924;-67
2022/06/08 10:03:08;;;;;;;;;;;19.80;99.90;;;;;;5044885;28;20379;-68
2022/06/08 10:05:40;;;;;;;;;;;19.80;99.90;;;;;;5045803;28;19917;-66
2022/06/08 10:08:11;;;;;;;;;;;19.80;99.90;;;;;;5045517;28;19917;-66
2022/06/08 10:10:55;;;;;;;;;;;19.80;99.90;;;;;;5045911;28;19917;-59
2022/06/08 10:13:24;;;;;;;;;;;19.80;99.90;;;;;;5045333;28;20398;-59
2022/06/08 10:15:52;;;;;;;;;;;19.70;99.90;;;;;;5045623;28;19917;-59
2022/06/08 10:18:49;;;;;;;;;;;19.80;99.90;;;;;;5048725;28;19916;-58
2022/06/08 10:21:17;;;;;;;;;;;19.80;99.90;;;;;;4965991;28;19914;-59
2022/06/08 10:23:54;;;;;;;;;;;19.90;99.90;;;;;;4957739;28;19919;-58
2022/06/08 10:26:21;;;;;;;;;;;20.00;99.90;;;;;;4962851;28;19915;-57
2022/06/08 10:28:46;;;;;;;;;;;20.10;99.90;;;;;;4960593;28;19920;-57
2022/06/08 10:31:30;;;;;;;;;;;20.30;99.90;;;;;;4961320;28;19918;-57
2022/06/08 10:33:55;;;;;;;;;;;20.40;99.90;;;;;;4964245;28;19922;-59
2022/06/08 10:36:21;;;;;;;;;;;20.50;99.90;;;;;;4963882;28;19924;-57
2022/06/08 10:38:47;;;;;;;;;;;20.60;99.90;;;;;;4961778;28;19980;-59
2022/06/08 10:44:01;;;;;;;;;;;20.90;99.90;;;;;;4960229;28;19925;-57
2022/06/08 10:46:46;;;;;;;;;;;20.90;99.90;;;;;;4964955;28;19968;-58
2022/06/08 10:49:19;;;;;;;;;;;20.90;99.90;;;;;;4968103;28;19956;-67
2022/06/08 10:51:44;;;;;;;;;;;20.50;99.90;;;;;;4967424;28;19939;-71
2022/06/08 10:54:54;;;;;;;;;;;19.90;99.90;;;;;;4971898;28;20367;-73
2022/06/08 10:57:35;;;;;;;;;;;19.50;99.90;;;;;;5020870;28;20017;-73
2022/06/08 11:00:16;;;;;;;;;;;19.00;99.90;;;;;;5034069;28;20327;-73
2022/06/08 11:02:44;;;;;;;;;;;18.80;99.90;;;;;;5029839;28;19921;-72
2022/06/08 11:05:12;;;;;;;;;;;18.80;99.90;;;;;;5047895;28;20402;-75
2022/06/08 11:07:57;;;;;;;;;;;18.80;99.90;;;;;;5048692;28;20306;-73
2022/06/08 11:10:53;;;;;;;;;;;18.70;99.90;;;;;;5047969;28;19971;-73
2022/06/08 11:13:24;;;;;;;;;;;18.70;99.90;;;;;;5050000;28;20031;-74
2022/06/08 11:15:53;;;;;;;;;;;18.60;99.90;;;;;;5048943;28;19975;-75
2022/06/08 11:18:41;;;;;;;;;;;18.70;99.90;;;;;;5051548;28;19975;-76
2022/06/08 11:21:20;;;;;;;;;;;18.60;99.90;;;;;;5051709;28;20027;-73
2022/06/08 11:23:48;;;;;;;;;;;18.70;99.90;;;;;;5048986;28;20015;-73
2022/06/08 11:26:19;;;;;;;;;;;18.60;99.90;;;;;;5048212;28;19958;-73
2022/06/08 11:28:45;;;;;;;;;;;18.70;99.90;;;;;;5045346;28;19917;-69
2022/06/08 11:31:13;;;;;;;;;;;18.70;99.90;;;;;;5047696;28;19970;-72
2022/06/08 11:33:50;;;;;;;;;;;18.70;99.90;;;;;;5049524;28;19913;-73
2022/06/08 11:36:20;;;;;;;;;;;18.80;99.90;;;;;;5051336;28;20020;-71
2022/06/08 11:38:45;;;;;;;;;;;18.90;99.90;;;;;;5047751;28;19960;-72
2022/06/08 11:41:20;;;;;;;;;;;18.80;99.90;;;;;;5047168;28;20047;-71
2022/06/08 11:43:47;;;;;;;;;;;18.80;99.90;;;;;;5044649;28;19920;-70
2022/06/08 11:46:36;;;;;;;;;;;18.90;99.90;;;;;;5048183;28;20302;-72
2022/06/08 11:49:02;;;;;;;;;;;19.00;99.90;;;;;;5041132;28;19919;-74
2022/06/08 11:51:38;;;;;;;;;;;19.00;99.90;;;;;;5049100;28;19912;-72
2022/06/08 11:54:25;;;;;;;;;;;19.10;99.90;;;;;;5050798;28;19960;-72
2022/06/08 11:56:53;;;;;;;;;;;19.10;99.90;;;;;;5048554;28;19963;-72
2022/06/08 11:59:20;;;;;;;;;;;19.20;99.90;;;;;;5044128;28;19917;-69
2022/06/08 12:01:59;;;;;;;;;;;19.30;99.90;;;;;;5048181;28;19913;-73
2022/06/08 12:04:26;;;;;;;;;;;19.30;99.90;;;;;;5044849;28;20268;-73
2022/06/08 12:06:56;;;;;;;;;;;19.30;99.90;;;;;;5048662;28;19916;-69
2022/06/08 12:09:26;;;;;;;;;;;19.30;99.90;;;;;;5050540;28;19951;-68
2022/06/08 12:11:53;;;;;;;;;;;19.20;99.90;;;;;;5048063;28;19965;-71
2022/06/08 12:14:27;;;;;;;;;;;19.10;99.90;;;;;;5046517;28;19916;-70
2022/06/08 12:17:05;;;;;;;;;;;19.00;99.90;;;;;;5048090;28;19921;-71
2022/06/08 12:19:38;;;;;;;;;;;19.00;99.90;;;;;;5045974;28;19913;-69
2022/06/08 12:22:20;;;;;;;;;;;19.00;99.90;;;;;;5048273;28;20655;-70
2022/06/08 12:25:05;;;;;;;;;;;19.10;99.90;;;;;;5046782;28;19917;-70
2022/06/08 12:27:38;;;;;;;;;;;19.30;99.90;;;;;;5047482;28;19920;-69
2022/06/08 12:30:18;;;;;;;;;;;19.30;99.90;;;;;;5049693;28;19921;-70
2022/06/08 12:32:52;;;;;;;;;;;19.30;99.90;;;;;;5047927;28;19913;-68
2022/06/08 12:35:26;;;;;;;;;;;19.30;99.90;;;;;;5046333;28;19916;-70
2022/06/08 12:38:23;;;;;;;;;;;19.30;99.90;;;;;;5046312;28;20011;-67
2022/06/08 12:41:01;;;;;;;;;;;19.30;99.90;;;;;;4946049;28;19918;-69
2022/06/08 12:43:53;;;;;;;;;;;19.30;99.90;;;;;;4945906;28;20381;-68
2022/06/08 12:46:23;;;;;;;;;;;19.30;99.90;;;;;;4945646;28;19922;-68
2022/06/08 12:48:54;;;;;;;;;;;19.40;99.90;;;;;;4946065;28;19918;-69
2022/06/08 12:51:29;;;;;;;;;;;19.50;99.90;;;;;;4934311;29;19918;-67
2022/06/08 12:53:54;;;;;;;;;;;19.50;99.90;;;;;;4948026;28;19953;-68
2022/06/08 12:56:22;;;;;;;;;;;19.50;99.90;;;;;;4945492;28;19918;-65
2022/06/08 12:58:51;;;;;;;;;;;19.50;99.90;;;;;;4946904;28;20025;-66
2022/06/08 13:01:19;;;;;;;;;;;19.50;99.90;;;;;;4946003;28;19966;-66
2022/06/08 13:03:44;;;;;;;;;;;19.50;99.90;;;;;;4947183;28;19938;-68
2022/06/08 13:06:10;;;;;;;;;;;19.70;99.10;;;;;;4949521;28;19921;-67
2022/06/08 13:08:36;;;;;;;;;;;19.70;99.90;;;;;;4947385;28;19933;-67
2022/06/08 13:11:04;;;;;;;;;;;19.80;99.90;;;;;;4946673;28;19921;-67
2022/06/08 13:13:32;;;;;;;;;;;20.00;99.90;;;;;;4946713;28;19921;-65
2022/06/08 13:15:59;;;;;;;;;;;20.20;99.90;;;;;;4977768;28;20291;-68
2022/06/08 13:18:25;;;;;;;;;;;20.30;99.90;;;;;;5047657;28;19923;-68
2022/06/08 13:20:56;;;;;;;;;;;20.50;99.90;;;;;;5048337;28;19920;-66
2022/06/08 13:23:22;;;;;;;;;;;20.60;99.70;;;;;;5046473;28;20398;-66
2022/06/08 13:25:48;;;;;;;;;;;20.50;99.50;;;;;;5045801;28;20397;-70
2022/06/08 13:28:16;;;;;;;;;;;20.50;98.10;;;;;;5047047;28;20379;-71
2022/06/08 13:30:42;;;;;;;;;;;20.50;97.80;;;;;;5045065;28;20019;-70
2022/06/08 13:33:56;;;;;;;;;;;20.50;98.50;;;;;;5049475;28;19986;-70
2022/06/08 13:35:56;;;;;;;;;;;20.70;97.70;;;;;;5049133;28;20276;-71
2022/06/08 13:38:23;;;;;;;;;;;20.70;97.00;;;;;;5048675;28;19924;-71
2022/06/08 13:40:48;;;;;;;;;;;20.80;98.40;;;;;;5046287;28;20387;-69
2022/06/08 13:43:14;;;;;;;;;;;20.90;96.70;;;;;;5046922;28;19919;-72
2022/06/08 13:45:44;;;;;;;;;;;20.90;96.30;;;;;;5047068;28;19917;-71
2022/06/08 13:48:15;;;;;;;;;;;20.80;97.00;;;;;;5046216;28;19920;-70
2022/06/08 13:50:41;;;;;;;;;;;20.90;95.60;;;;;;5045705;28;20516;-70
2022/06/08 13:53:08;;;;;;;;;;;20.80;95.70;;;;;;5046385;28;19923;-70
2022/06/08 13:55:36;;;;;;;;;;;20.80;95.90;;;;;;5046990;28;19913;-71
2022/06/08 13:58:03;;;;;;;;;;;20.80;94.60;;;;;;5046050;28;19934;-69
2022/06/08 14:00:30;;;;;;;;;;;20.70;95.50;;;;;;5048418;28;19929;-70
2022/06/08 14:02:59;;;;;;;;;;;20.70;95.70;;;;;;5047130;28;19919;-69
2022/06/08 14:13:45;;;;;;;;;;;20.70;95.70;;;;;;5049522;28;19919;-69
2022/06/08 14:16:10;;;;;;;;;;;20.80;95.50;;;;;;5046911;28;20413;-69
2022/06/08 14:18:38;;;;;;;;;;;20.80;95.50;;;;;;5047287;28;19999;-65
2022/06/08 14:21:03;;;;;;;;;;;20.80;95.40;;;;;;5048335;28;19928;-70
2022/06/08 14:23:30;;;;;;;;;;;20.90;95.80;;;;;;5044185;28;19917;-70
2022/06/08 14:25:55;;;;;;;;;;;20.90;95.40;;;;;;5044350;28;20282;-70
2022/06/08 14:28:21;;;;;;;;;;;20.80;95.00;;;;;;5045814;28;20008;-72
2022/06/08 14:30:48;;;;;;;;;;;20.80;94.60;;;;;;5046851;28;20447;-70
2022/06/08 14:33:19;;;;;;;;;;;20.90;95.10;;;;;;5047937;28;19955;-70
2022/06/08 14:35:48;;;;;;;;;;;20.90;95.40;;;;;;5043691;28;19945;-68
2022/06/08 14:38:18;;;;;;;;;;;20.80;94.60;;;;;;5045398;28;19963;-69
2022/06/08 14:40:44;;;;;;;;;;;20.80;93.90;;;;;;5044770;28;19920;-71
2022/06/08 14:43:10;;;;;;;;;;;20.70;94.10;;;;;;5048003;28;19912;-68
2022/06/08 14:45:36;;;;;;;;;;;20.80;93.80;;;;;;5046412;28;20015;-69
2022/06/08 14:48:03;;;;;;;;;;;20.80;94.50;;;;;;5047863;28;20417;-70
2022/06/08 14:50:30;;;;;;;;;;;20.90;94.40;;;;;;5044701;28;19913;-69